Wann, OK (74083)

4:44 AM CDT on September 15, 2014 (GMT -0500)
HADS LITTLE CANEY RIVER AT COPAN LAKE OK US USARMY-COE | Change Station
CLOSE
Current Station
Personal Weather Station
Location: Copan, OK
Elevation: 708 ft
Nearby Weather Stations

Elev 708 ft 36.89 °N, 95.95 °W | Updated 44 minutes ago

Overcast
Overcast
68 °F
Feels Like 68 °F
N
7
Wind Variable Wind from South
Gusts 0.0 mph

Today
High -- | Low -- °F
--% Chance of Precip.
Yesterday
High -- | Low -- °F
Precip. -- in
7:05 AM 7:30 PM
Waning Gibbous, 57% visible
Pressure 30.06 in
Visibility 10.0 miles
Clouds Overcast 11000 ft
Dew Point 62 °F
Humidity 81%
Rainfall 0.00 in
Snow Depth Not available.
UV 0 out of 12
Pollen 9.70 out of 12
Air Quality Not available.
Flu Activity Not available.
METAR KCFV 150852Z AUTO 18009KT 10SM OVC110 20/18 A3008 RMK AO2 SLP179 T02000178 56006

More Conditions Fewer Conditions

Pressure 30.06 in
Visibility 10.0 miles
Clouds Overcast 11000 ft
Dew Point 62 °F
Humidity 81%
Rainfall 0.00 in
Snow Depth Not available.
UV 0 out of 12
Pollen 9.70 out of 12
Air Quality Not available.
Flu Activity Not available.
METAR KCFV 150852Z AUTO 18009KT 10SM OVC110 20/18 A3008 RMK AO2 SLP179 T02000178 56006

More Conditions Fewer Conditions

Nowcast | as of 3:46 am CDT on September 15, 2014

At 3:46 am...National Weather Service Doppler radars continued to indicate scattered light showers across portions of eastern Oklahoma and western Arkansas. Areal coverage of the showers had increased over the past couple of hours. The showers were located along and north of Interstate 40...and were moving to the east at 25 mph. Through 6 am...additional light showers will develop primarily across northeast Oklahoma and far northwest Arkansas...with the ongoing showers also remaining in the area. Other showers in south central Oklahoma may move into southeast Oklahoma as well. Rainfall amounts should only be a few hundredths at any one location.

×

10-Day Weather Forecast

Almanac

Astronomy

Sep. 15, 2014 Rise Set
Actual Time 7:05 AM CDT 7:30 PM CDT
Civil Twilight 6:39 AM CDT 7:56 PM CDT
Nautical Twilight 6:08 AM CDT 8:27 PM CDT
Astronomical Twilight 5:37 AM CDT 8:58 PM CDT
Moon No Moon Rise 1:57 PM CDT
Length of Visible Light 13h 17m
Length of Day
12h 25m
Tomorrow will be 2m 19s shorter.
Waning Gibbous, 57% of the Moon is Illuminated
Today
Waning Gibbous
Sep 15
Last Quarter
Sep 24
New
Oct 1
First Quarter
Oct 8
Full

Today's Extremes

State Highs State Lows

Community

WunderPhotos

Upload Photos

1,753,427 photos uploaded!

Nearby

Snow Depth

Station Depth Elevation
No new snow has been reported.

Earthquake Activity

City Distance Mag. Time & Date
Guthrie, Oklahoma 119 miles 3.0 7:11 PM CDT
2014-09-14
Perry, Oklahoma 98 miles 3.3 11:10 PM CDT
2014-09-13
Perry, Oklahoma 95 miles 2.8 10:52 PM CDT
2014-09-13
Perry, Oklahoma 103 miles 3.3 3:01 PM CDT
2014-09-13
Minimum magnitude displayed is 2.5.

Coastal Water Temperatures

Place Temperature
No Stations Reporting

Nearby Weather Stations